KSDM/SDM METAR and TAF weather

Enter ICAO airport designator
Station Type Date Time Source
KSDM METAR 2020/02/16 19:53 UTC NOAA

KSDM 161953Z 29005KT 10SM CLR 19/08 A3008 RMK AO2 SLP183 T01890078


Station Type Date Time Source
KSDM Decoded METAR 2020/02/16 19:53 UTC NOAA

San Diego, Brown Field Municipal Airport, CA, United States (KSDM) 32-34-31N 116-59-35W 159M
Feb 16, 2020 - 02:53 PM EST / 2020.02.16 1953 UTC
Wind: from the WNW (290 degrees) at 6 MPH (5 KT):0
Visibility: 10 mile(s):0
Sky conditions: clear
Temperature: 66.0 F (18.9 C)
Dew Point: 46.0 F (7.8 C)
Relative Humidity: 48%
Pressure (altimeter): 30.08 in. Hg (1018 hPa)
ob: KSDM 161953Z 29005KT 10SM CLR 19/08 A3008 RMK AO2 SLP183 T01890078
cycle: 20

Station Type Date Time Source
KSDM TAF UTC NOAA

Error!

Example: see airport list